sensor_id;sensor_type;location;lat;lon;timestamp;P1;durP1;ratioP1;P2;durP2;ratioP2
30466;SDS011;17258;52.560;13.046;2023-07-16T00:08:56;3.10;;;1.30;;
30466;SDS011;17258;52.560;13.046;2023-07-16T00:18:57;1.37;;;1.27;;
30466;SDS011;17258;52.560;13.046;2023-07-16T00:28:57;1.73;;;1.53;;
30466;SDS011;17258;52.560;13.046;2023-07-16T00:38:58;1.30;;;1.00;;
30466;SDS011;17258;52.560;13.046;2023-07-16T00:48:59;1.40;;;1.30;;
30466;SDS011;17258;52.560;13.046;2023-07-16T00:59:01;3.80;;;1.60;;
30466;SDS011;17258;52.560;13.046;2023-07-16T01:09:03;2.20;;;1.63;;
30466;SDS011;17258;52.560;13.046;2023-07-16T01:19:09;2.50;;;2.10;;
30466;SDS011;17258;52.560;13.046;2023-07-16T01:39:42;4.30;;;2.53;;
30466;SDS011;17258;52.560;13.046;2023-07-16T01:49:43;2.38;;;2.20;;
30466;SDS011;17258;52.560;13.046;2023-07-16T01:59:43;1.73;;;1.63;;
30466;SDS011;17258;52.560;13.046;2023-07-16T02:09:45;1.73;;;1.60;;
30466;SDS011;17258;52.560;13.046;2023-07-16T02:19:45;1.77;;;1.67;;
30466;SDS011;17258;52.560;13.046;2023-07-16T02:29:46;1.10;;;1.10;;
30466;SDS011;17258;52.560;13.046;2023-07-16T02:39:47;2.80;;;1.10;;
30466;SDS011;17258;52.560;13.046;2023-07-16T02:49:50;1.27;;;1.20;;
30466;SDS011;17258;52.560;13.046;2023-07-16T02:59:52;1.02;;;1.02;;
30466;SDS011;17258;52.560;13.046;2023-07-16T03:09:52;1.20;;;1.00;;
30466;SDS011;17258;52.560;13.046;2023-07-16T03:19:53;1.20;;;1.10;;
30466;SDS011;17258;52.560;13.046;2023-07-16T03:29:54;1.90;;;1.00;;
30466;SDS011;17258;52.560;13.046;2023-07-16T03:39:54;2.47;;;1.73;;
30466;SDS011;17258;52.560;13.046;2023-07-16T03:49:55;1.27;;;1.27;;
30466;SDS011;17258;52.560;13.046;2023-07-16T03:59:56;3.07;;;1.90;;
30466;SDS011;17258;52.560;13.046;2023-07-16T04:09:56;1.77;;;1.50;;
30466;SDS011;17258;52.560;13.046;2023-07-16T04:19:57;1.43;;;1.33;;
30466;SDS011;17258;52.560;13.046;2023-07-16T04:29:58;1.47;;;1.37;;
30466;SDS011;17258;52.560;13.046;2023-07-16T04:39:58;5.72;;;1.60;;
30466;SDS011;17258;52.560;13.046;2023-07-16T04:49:59;1.33;;;1.23;;
30466;SDS011;17258;52.560;13.046;2023-07-16T05:00:00;1.63;;;1.30;;
30466;SDS011;17258;52.560;13.046;2023-07-16T05:10:01;1.60;;;1.50;;
30466;SDS011;17258;52.560;13.046;2023-07-16T05:20:01;1.47;;;1.37;;
30466;SDS011;17258;52.560;13.046;2023-07-16T05:30:04;2.28;;;1.77;;
30466;SDS011;17258;52.560;13.046;2023-07-16T05:40:05;1.35;;;1.35;;
30466;SDS011;17258;52.560;13.046;2023-07-16T05:50:08;2.03;;;1.60;;
30466;SDS011;17258;52.560;13.046;2023-07-16T06:00:09;1.38;;;1.27;;
30466;SDS011;17258;52.560;13.046;2023-07-16T06:10:10;2.97;;;1.95;;
30466;SDS011;17258;52.560;13.046;2023-07-16T06:20:11;3.58;;;1.92;;
30466;SDS011;17258;52.560;13.046;2023-07-16T06:30:12;1.77;;;1.67;;
30466;SDS011;17258;52.560;13.046;2023-07-16T06:40:12;2.40;;;2.17;;
30466;SDS011;17258;52.560;13.046;2023-07-16T06:50:13;2.10;;;1.90;;
30466;SDS011;17258;52.560;13.046;2023-07-16T07:00:14;2.40;;;2.13;;
30466;SDS011;17258;52.560;13.046;2023-07-16T07:10:15;1.63;;;1.52;;
30466;SDS011;17258;52.560;13.046;2023-07-16T07:20:15;1.57;;;1.47;;
30466;SDS011;17258;52.560;13.046;2023-07-16T07:30:16;1.63;;;1.53;;
30466;SDS011;17258;52.560;13.046;2023-07-16T07:40:17;1.80;;;1.40;;
30466;SDS011;17258;52.560;13.046;2023-07-16T07:50:19;1.98;;;1.52;;
30466;SDS011;17258;52.560;13.046;2023-07-16T08:00:20;2.03;;;1.50;;
30466;SDS011;17258;52.560;13.046;2023-07-16T08:10:21;6.22;;;1.75;;
30466;SDS011;17258;52.560;13.046;2023-07-16T08:20:22;1.70;;;1.55;;
30466;SDS011;17258;52.560;13.046;2023-07-16T08:30:23;2.37;;;1.47;;
30466;SDS011;17258;52.560;13.046;2023-07-16T08:40:23;2.05;;;1.85;;
30466;SDS011;17258;52.560;13.046;2023-07-16T08:50:24;2.47;;;1.63;;
30466;SDS011;17258;52.560;13.046;2023-07-16T09:00:26;2.10;;;1.25;;
30466;SDS011;17258;52.560;13.046;2023-07-16T09:10:28;1.83;;;1.73;;
30466;SDS011;17258;52.560;13.046;2023-07-16T09:20:30;2.75;;;1.77;;
30466;SDS011;17258;52.560;13.046;2023-07-16T09:30:31;5.40;;;1.53;;
30466;SDS011;17258;52.560;13.046;2023-07-16T09:40:38;6.00;;;1.67;;
30466;SDS011;17258;52.560;13.046;2023-07-16T09:50:45;1.70;;;1.38;;
30466;SDS011;17258;52.560;13.046;2023-07-16T10:00:52;8.95;;;8.48;;
30466;SDS011;17258;52.560;13.046;2023-07-16T10:10:54;6.07;;;5.78;;
30466;SDS011;17258;52.560;13.046;2023-07-16T10:21:01;9.73;;;9.23;;
30466;SDS011;17258;52.560;13.046;2023-07-16T10:31:19;11.55;;;10.95;;
30466;SDS011;17258;52.560;13.046;2023-07-16T10:41:22;2.65;;;2.47;;
30466;SDS011;17258;52.560;13.046;2023-07-16T10:51:26;1.75;;;1.40;;
30466;SDS011;17258;52.560;13.046;2023-07-16T11:01:28;3.28;;;1.27;;
30466;SDS011;17258;52.560;13.046;2023-07-16T11:11:30;1.67;;;1.58;;
30466;SDS011;17258;52.560;13.046;2023-07-16T11:21:31;1.60;;;1.50;;
30466;SDS011;17258;52.560;13.046;2023-07-16T11:31:38;3.33;;;1.63;;
30466;SDS011;17258;52.560;13.046;2023-07-16T11:41:53;1.45;;;1.33;;
30466;SDS011;17258;52.560;13.046;2023-07-16T11:51:56;1.48;;;1.25;;
30466;SDS011;17258;52.560;13.046;2023-07-16T12:01:58;1.45;;;1.35;;
30466;SDS011;17258;52.560;13.046;2023-07-16T12:12:00;2.25;;;1.98;;
30466;SDS011;17258;52.560;13.046;2023-07-16T12:22:01;2.72;;;1.85;;
30466;SDS011;17258;52.560;13.046;2023-07-16T12:32:03;2.33;;;1.77;;
30466;SDS011;17258;52.560;13.046;2023-07-16T12:42:04;2.47;;;1.17;;
30466;SDS011;17258;52.560;13.046;2023-07-16T12:52:05;7.72;;;1.23;;
30466;SDS011;17258;52.560;13.046;2023-07-16T13:02:06;1.85;;;1.52;;
30466;SDS011;17258;52.560;13.046;2023-07-16T13:12:07;1.47;;;1.23;;
30466;SDS011;17258;52.560;13.046;2023-07-16T13:22:08;1.70;;;1.42;;
30466;SDS011;17258;52.560;13.046;2023-07-16T13:32:08;1.37;;;1.27;;
30466;SDS011;17258;52.560;13.046;2023-07-16T13:42:09;1.53;;;1.40;;
30466;SDS011;17258;52.560;13.046;2023-07-16T13:52:11;3.00;;;1.45;;
30466;SDS011;17258;52.560;13.046;2023-07-16T14:02:11;1.47;;;1.37;;
30466;SDS011;17258;52.560;13.046;2023-07-16T14:12:14;4.17;;;1.63;;
30466;SDS011;17258;52.560;13.046;2023-07-16T14:22:15;1.73;;;1.45;;
30466;SDS011;17258;52.560;13.046;2023-07-16T14:32:15;2.83;;;1.27;;
30466;SDS011;17258;52.560;13.046;2023-07-16T14:42:16;1.67;;;1.17;;
30466;SDS011;17258;52.560;13.046;2023-07-16T14:52:17;4.07;;;1.17;;
30466;SDS011;17258;52.560;13.046;2023-07-16T15:02:19;2.85;;;1.23;;
30466;SDS011;17258;52.560;13.046;2023-07-16T15:12:19;4.70;;;2.40;;
30466;SDS011;17258;52.560;13.046;2023-07-16T15:22:20;1.20;;;1.10;;
30466;SDS011;17258;52.560;13.046;2023-07-16T15:32:21;2.97;;;1.20;;
30466;SDS011;17258;52.560;13.046;2023-07-16T15:42:21;1.23;;;1.13;;
30466;SDS011;17258;52.560;13.046;2023-07-16T15:52:24;1.55;;;0.95;;
30466;SDS011;17258;52.560;13.046;2023-07-16T16:02:24;1.75;;;1.63;;
30466;SDS011;17258;52.560;13.046;2023-07-16T16:12:25;1.60;;;1.50;;
30466;SDS011;17258;52.560;13.046;2023-07-16T16:22:26;1.17;;;1.07;;
30466;SDS011;17258;52.560;13.046;2023-07-16T16:32:27;1.50;;;1.40;;
30466;SDS011;17258;52.560;13.046;2023-07-16T16:42:27;1.37;;;1.30;;
30466;SDS011;17258;52.560;13.046;2023-07-16T16:52:28;2.40;;;1.70;;
30466;SDS011;17258;52.560;13.046;2023-07-16T17:02:29;1.38;;;1.08;;
30466;SDS011;17258;52.560;13.046;2023-07-16T17:12:30;1.48;;;1.30;;
30466;SDS011;17258;52.560;13.046;2023-07-16T17:22:31;1.47;;;1.30;;
30466;SDS011;17258;52.560;13.046;2023-07-16T17:32:31;1.30;;;0.90;;
30466;SDS011;17258;52.560;13.046;2023-07-16T17:42:34;1.47;;;1.30;;
30466;SDS011;17258;52.560;13.046;2023-07-16T17:52:34;1.60;;;1.50;;
30466;SDS011;17258;52.560;13.046;2023-07-16T18:02:35;1.27;;;1.17;;
30466;SDS011;17258;52.560;13.046;2023-07-16T18:12:36;2.20;;;1.47;;
30466;SDS011;17258;52.560;13.046;2023-07-16T18:22:37;0.87;;;0.87;;
30466;SDS011;17258;52.560;13.046;2023-07-16T18:32:38;1.05;;;1.00;;
30466;SDS011;17258;52.560;13.046;2023-07-16T18:42:39;1.37;;;1.10;;
30466;SDS011;17258;52.560;13.046;2023-07-16T18:52:39;1.10;;;1.10;;
30466;SDS011;17258;52.560;13.046;2023-07-16T19:02:40;1.10;;;1.10;;
30466;SDS011;17258;52.560;13.046;2023-07-16T19:12:41;1.37;;;1.27;;
30466;SDS011;17258;52.560;13.046;2023-07-16T19:22:41;1.63;;;1.52;;
30466;SDS011;17258;52.560;13.046;2023-07-16T19:32:42;1.47;;;1.33;;
30466;SDS011;17258;52.560;13.046;2023-07-16T19:42:43;1.37;;;1.27;;
30466;SDS011;17258;52.560;13.046;2023-07-16T19:52:44;1.70;;;1.60;;
30466;SDS011;17258;52.560;13.046;2023-07-16T20:02:44;1.27;;;1.17;;
30466;SDS011;17258;52.560;13.046;2023-07-16T20:12:46;2.45;;;1.55;;
30466;SDS011;17258;52.560;13.046;2023-07-16T20:22:46;2.03;;;1.80;;
30466;SDS011;17258;52.560;13.046;2023-07-16T20:32:47;2.53;;;1.97;;
30466;SDS011;17258;52.560;13.046;2023-07-16T20:42:48;3.43;;;2.13;;
30466;SDS011;17258;52.560;13.046;2023-07-16T20:52:49;1.65;;;1.55;;
30466;SDS011;17258;52.560;13.046;2023-07-16T21:02:51;1.60;;;1.50;;
30466;SDS011;17258;52.560;13.046;2023-07-16T21:12:54;2.22;;;1.98;;
30466;SDS011;17258;52.560;13.046;2023-07-16T21:22:57;3.88;;;3.55;;
30466;SDS011;17258;52.560;13.046;2023-07-16T21:32:57;5.78;;;3.67;;
30466;SDS011;17258;52.560;13.046;2023-07-16T21:42:58;3.20;;;2.63;;
30466;SDS011;17258;52.560;13.046;2023-07-16T21:52:59;5.57;;;2.57;;
30466;SDS011;17258;52.560;13.046;2023-07-16T22:03:00;3.60;;;2.58;;
30466;SDS011;17258;52.560;13.046;2023-07-16T22:13:03;2.67;;;2.47;;
30466;SDS011;17258;52.560;13.046;2023-07-16T22:23:04;2.38;;;2.17;;
30466;SDS011;17258;52.560;13.046;2023-07-16T22:33:05;2.05;;;1.88;;
30466;SDS011;17258;52.560;13.046;2023-07-16T22:43:06;2.17;;;1.97;;
30466;SDS011;17258;52.560;13.046;2023-07-16T22:53:18;4.87;;;1.80;;
30466;SDS011;17258;52.560;13.046;2023-07-16T23:03:19;2.55;;;2.35;;
30466;SDS011;17258;52.560;13.046;2023-07-16T23:13:19;1.77;;;1.67;;
30466;SDS011;17258;52.560;13.046;2023-07-16T23:23:20;1.83;;;1.73;;
30466;SDS011;17258;52.560;13.046;2023-07-16T23:33:21;1.77;;;1.67;;
30466;SDS011;17258;52.560;13.046;2023-07-16T23:43:21;1.60;;;1.50;;
30466;SDS011;17258;52.560;13.046;2023-07-16T23:53:22;2.45;;;1.92;;
